Time;durP1;ratioP1;P1;durP2;ratioP2;P2;SDS_P1;SDS_P2;PMS_P1;PMS_P2;Temp;Humidity;BMP_temperature;BMP_pressure;BME280_temperature;BME280_humidity;BME280_pressure;Samples;Min_cycle;Max_cycle;Signal;HPM_P1;HPM_P2
2021/03/07 00:00:24;;;;;;;19.50;11.38;;;;;;;;;;6287515;22;20174;-94
2021/03/07 00:02:50;;;;;;;15.82;10.70;;;;;;;;;;6288166;22;20178;-95
2021/03/07 00:05:18;;;;;;;18.55;10.10;;;;;;;;;;6286426;22;20200;-95
2021/03/07 00:07:44;;;;;;;15.38;10.43;;;;;;;;;;6287191;22;20174;-94
2021/03/07 00:10:11;;;;;;;19.58;10.73;;;;;;;;;;6285793;22;20624;-95
2021/03/07 00:12:37;;;;;;;14.48;10.35;;;;;;;;;;6288538;22;20193;-94
2021/03/07 00:15:04;;;;;;;18.38;11.38;;;;;;;;;;6287285;22;20204;-95
2021/03/07 00:17:30;;;;;;;14.57;9.52;;;;;;;;;;6288616;22;20525;-95
2021/03/07 00:19:57;;;;;;;11.25;9.00;;;;;;;;;;6289306;22;20566;-95
2021/03/07 00:22:24;;;;;;;18.23;10.25;;;;;;;;;;6295584;22;20201;-95
2021/03/07 00:24:50;;;;;;;13.90;9.20;;;;;;;;;;6294848;22;20174;-95
2021/03/07 00:27:16;;;;;;;13.90;10.10;;;;;;;;;;6287079;22;20179;-95
2021/03/07 00:29:42;;;;;;;12.63;9.02;;;;;;;;;;6288781;22;20200;-96
2021/03/07 00:32:08;;;;;;;14.43;10.70;;;;;;;;;;6285623;22;20229;-95
2021/03/07 00:34:34;;;;;;;14.77;9.60;;;;;;;;;;6289272;22;20203;-96
2021/03/07 00:37:00;;;;;;;15.18;9.15;;;;;;;;;;6292431;22;20257;-95
2021/03/07 00:39:28;;;;;;;14.00;9.07;;;;;;;;;;6290100;22;20204;-95
2021/03/07 00:41:54;;;;;;;15.32;9.57;;;;;;;;;;6288201;22;20188;-95
2021/03/07 00:44:20;;;;;;;14.43;9.10;;;;;;;;;;6288441;22;20170;-96
2021/03/07 00:46:47;;;;;;;11.43;8.35;;;;;;;;;;6287691;22;20204;-96
2021/03/07 00:49:15;;;;;;;13.88;9.13;;;;;;;;;;6288665;22;20201;-96
2021/03/07 00:51:41;;;;;;;12.60;8.73;;;;;;;;;;6290130;22;20236;-94
2021/03/07 00:54:07;;;;;;;11.02;8.00;;;;;;;;;;6292757;22;20177;-96
2021/03/07 00:56:34;;;;;;;13.18;8.65;;;;;;;;;;6289151;22;20204;-95
2021/03/07 00:59:00;;;;;;;13.90;8.65;;;;;;;;;;6294170;22;20174;-95
2021/03/07 01:01:26;;;;;;;14.73;8.98;;;;;;;;;;6288622;22;20170;-95
2021/03/07 01:03:52;;;;;;;12.43;8.50;;;;;;;;;;6287553;22;20181;-95
2021/03/07 01:06:18;;;;;;;13.82;8.77;;;;;;;;;;6287897;22;20530;-96
2021/03/07 01:08:45;;;;;;;12.77;8.10;;;;;;;;;;6287121;22;20174;-95
2021/03/07 01:11:11;;;;;;;15.70;9.00;;;;;;;;;;6289237;22;20181;-95
2021/03/07 01:13:38;;;;;;;15.30;9.55;;;;;;;;;;6286084;22;20185;-95
2021/03/07 01:16:04;;;;;;;14.05;8.15;;;;;;;;;;6287216;22;20178;-95
2021/03/07 01:18:30;;;;;;;14.63;9.45;;;;;;;;;;6286723;22;20178;-95
2021/03/07 01:20:56;;;;;;;11.88;8.25;;;;;;;;;;6288309;22;20178;-95
2021/03/07 01:23:23;;;;;;;14.02;9.23;;;;;;;;;;6287907;22;20178;-94
2021/03/07 01:25:49;;;;;;;11.88;7.88;;;;;;;;;;6287798;22;20174;-94
2021/03/07 01:28:15;;;;;;;14.10;8.60;;;;;;;;;;6285975;22;20178;-95
2021/03/07 01:30:43;;;;;;;18.02;9.30;;;;;;;;;;6288004;22;20200;-95
2021/03/07 01:33:10;;;;;;;14.35;8.10;;;;;;;;;;6287951;22;20198;-94
2021/03/07 01:35:36;;;;;;;11.32;8.52;;;;;;;;;;6288875;22;20180;-94
2021/03/07 01:38:02;;;;;;;18.35;9.18;;;;;;;;;;6287162;22;20540;-95
2021/03/07 01:40:30;;;;;;;15.52;9.07;;;;;;;;;;6287584;22;20178;-95
2021/03/07 01:42:57;;;;;;;12.82;9.00;;;;;;;;;;6290103;22;20514;-94
2021/03/07 01:45:23;;;;;;;15.43;9.00;;;;;;;;;;6288981;22;20635;-95
2021/03/07 01:47:51;;;;;;;13.20;9.57;;;;;;;;;;6290848;22;20662;-95
2021/03/07 01:50:18;;;;;;;13.15;8.25;;;;;;;;;;6288930;22;20242;-94
2021/03/07 01:52:44;;;;;;;13.27;8.68;;;;;;;;;;6286271;22;20202;-95
2021/03/07 01:55:10;;;;;;;13.93;8.73;;;;;;;;;;6286532;22;20170;-95
2021/03/07 01:57:37;;;;;;;13.75;8.98;;;;;;;;;;6286629;22;20178;-95
2021/03/07 02:00:05;;;;;;;12.38;8.65;;;;;;;;;;6285083;22;20255;-95
2021/03/07 02:02:31;;;;;;;16.08;8.75;;;;;;;;;;6264101;22;20178;-95
2021/03/07 02:04:58;;;;;;;17.75;9.77;;;;;;;;;;6287033;22;20205;-95
2021/03/07 02:07:24;;;;;;;13.77;9.07;;;;;;;;;;6289607;22;20548;-94
2021/03/07 02:09:52;;;;;;;13.43;9.13;;;;;;;;;;6292528;22;20188;-95
2021/03/07 02:12:18;;;;;;;13.93;9.55;;;;;;;;;;6300882;22;20200;-95
2021/03/07 02:14:46;;;;;;;15.77;8.60;;;;;;;;;;6291102;22;20175;-95
2021/03/07 02:17:12;;;;;;;10.43;8.00;;;;;;;;;;6292882;22;20181;-94
2021/03/07 02:19:40;;;;;;;12.93;8.80;;;;;;;;;;6290612;22;20234;-95
2021/03/07 02:22:10;;;;;;;14.70;8.15;;;;;;;;;;6289613;22;20178;-95
2021/03/07 02:24:37;;;;;;;10.40;7.95;;;;;;;;;;6296788;22;20185;-95
2021/03/07 02:27:04;;;;;;;14.50;9.20;;;;;;;;;;6287671;22;20249;-95
2021/03/07 02:29:31;;;;;;;13.60;9.00;;;;;;;;;;6297460;22;20161;-95
2021/03/07 02:31:59;;;;;;;12.95;7.72;;;;;;;;;;6292973;22;20213;-95
2021/03/07 02:34:28;;;;;;;13.27;8.93;;;;;;;;;;6290204;22;20188;-94
2021/03/07 02:36:57;;;;;;;12.90;8.95;;;;;;;;;;6295716;22;20222;-96
2021/03/07 02:39:26;;;;;;;12.32;7.75;;;;;;;;;;6294987;22;20170;-96
2021/03/07 02:42:02;;;;;;;13.57;8.85;;;;;;;;;;6273546;22;20198;-96
2021/03/07 02:44:32;;;;;;;13.90;9.13;;;;;;;;;;6299880;22;20174;-95
2021/03/07 02:47:00;;;;;;;12.63;8.60;;;;;;;;;;6298213;22;20177;-96
2021/03/07 02:49:27;;;;;;;10.43;7.85;;;;;;;;;;6297633;22;20176;-96
2021/03/07 02:51:56;;;;;;;15.40;8.85;;;;;;;;;;6297591;22;20289;-96
2021/03/07 02:54:24;;;;;;;15.07;9.85;;;;;;;;;;6296981;22;20174;-96
2021/03/07 02:56:52;;;;;;;10.55;8.23;;;;;;;;;;6293686;22;20198;-96
2021/03/07 02:59:22;;;;;;;12.57;8.30;;;;;;;;;;6269571;22;20181;-96
2021/03/07 03:01:55;;;;;;;11.43;8.02;;;;;;;;;;6270705;22;20189;-95
2021/03/07 03:04:22;;;;;;;18.10;9.40;;;;;;;;;;6298019;22;20177;-95
2021/03/07 03:06:53;;;;;;;11.48;8.32;;;;;;;;;;6296728;22;20178;-94
2021/03/07 03:09:20;;;;;;;11.40;8.40;;;;;;;;;;6299172;22;20189;-95
2021/03/07 03:11:48;;;;;;;11.95;7.88;;;;;;;;;;6299689;22;20256;-96
2021/03/07 03:14:15;;;;;;;15.50;8.10;;;;;;;;;;6301464;22;20250;-96
2021/03/07 03:16:46;;;;;;;18.40;9.00;;;;;;;;;;6297599;22;20162;-96
2021/03/07 03:19:12;;;;;;;10.48;7.43;;;;;;;;;;6297398;22;20170;-96
2021/03/07 03:21:38;;;;;;;9.98;7.53;;;;;;;;;;6296886;22;20238;-96
2021/03/07 03:24:07;;;;;;;9.15;7.07;;;;;;;;;;6294012;22;20198;-96
2021/03/07 03:26:33;;;;;;;11.13;7.95;;;;;;;;;;6294175;22;20174;-96
2021/03/07 03:28:59;;;;;;;11.05;7.80;;;;;;;;;;6293510;22;20189;-96
2021/03/07 03:31:26;;;;;;;14.52;9.15;;;;;;;;;;6246294;22;20195;-96
2021/03/07 03:33:53;;;;;;;15.43;8.20;;;;;;;;;;6264363;23;20186;-96
2021/03/07 03:36:19;;;;;;;11.07;8.23;;;;;;;;;;6265190;23;20224;-96
2021/03/07 03:38:47;;;;;;;13.80;8.00;;;;;;;;;;6236574;23;20179;-95
2021/03/07 03:41:14;;;;;;;14.52;8.85;;;;;;;;;;6264224;23;20171;-95
2021/03/07 03:43:42;;;;;;;14.45;8.40;;;;;;;;;;6264141;23;20193;-96
2021/03/07 03:46:11;;;;;;;14.23;8.80;;;;;;;;;;6263015;23;20190;-96
2021/03/07 03:48:38;;;;;;;13.25;8.88;;;;;;;;;;6263169;23;20182;-96
2021/03/07 03:51:10;;;;;;;12.73;7.80;;;;;;;;;;6263230;23;20178;-96
2021/03/07 03:53:37;;;;;;;15.98;8.82;;;;;;;;;;6263920;23;20205;-96
2021/03/07 03:56:04;;;;;;;13.45;8.90;;;;;;;;;;6266189;23;20171;-96
2021/03/07 03:58:32;;;;;;;14.18;8.10;;;;;;;;;;6268448;22;20163;-96
2021/03/07 04:00:59;;;;;;;15.43;9.95;;;;;;;;;;6271232;22;20159;-96
2021/03/07 04:03:26;;;;;;;20.38;11.68;;;;;;;;;;6234019;23;20239;-96
2021/03/07 04:05:53;;;;;;;16.42;10.77;;;;;;;;;;6261804;23;20182;-96
2021/03/07 04:08:21;;;;;;;21.55;12.70;;;;;;;;;;6261758;23;20171;-96
2021/03/07 04:10:48;;;;;;;22.38;13.82;;;;;;;;;;6261785;23;20233;-96
2021/03/07 04:13:15;;;;;;;23.13;12.60;;;;;;;;;;6267849;23;20243;-96
2021/03/07 04:15:42;;;;;;;21.05;13.20;;;;;;;;;;6258427;23;20175;-96
2021/03/07 04:18:13;;;;;;;24.90;13.00;;;;;;;;;;6262757;23;20194;-96
2021/03/07 04:20:39;;;;;;;21.27;11.82;;;;;;;;;;6264173;23;20231;-96
2021/03/07 04:23:06;;;;;;;21.23;12.60;;;;;;;;;;6235166;23;20194;-96
2021/03/07 04:25:33;;;;;;;20.88;13.60;;;;;;;;;;6258643;23;20258;-96
2021/03/07 04:27:59;;;;;;;17.65;10.63;;;;;;;;;;6259919;23;20175;-96
2021/03/07 04:30:28;;;;;;;18.85;10.98;;;;;;;;;;6266347;22;20221;-96
2021/03/07 04:32:55;;;;;;;18.92;10.15;;;;;;;;;;6320712;22;20199;-96
2021/03/07 04:35:21;;;;;;;13.38;9.50;;;;;;;;;;6319164;22;20249;-96
2021/03/07 04:37:48;;;;;;;17.40;10.05;;;;;;;;;;6317187;22;20184;-96
2021/03/07 04:40:14;;;;;;;15.82;9.45;;;;;;;;;;6316762;22;20225;-96
2021/03/07 04:42:44;;;;;;;15.23;9.93;;;;;;;;;;6319961;22;20229;-96
2021/03/07 04:45:13;;;;;;;15.38;9.05;;;;;;;;;;6320136;22;20682;-96
2021/03/07 04:47:40;;;;;;;21.77;10.80;;;;;;;;;;6318729;22;20178;-96
2021/03/07 04:50:07;;;;;;;14.55;9.85;;;;;;;;;;6318615;22;20177;-96
2021/03/07 04:52:33;;;;;;;15.20;10.25;;;;;;;;;;6316655;22;20223;-96
2021/03/07 04:54:59;;;;;;;15.00;10.05;;;;;;;;;;6318613;22;20173;-96
2021/03/07 04:57:26;;;;;;;15.23;9.63;;;;;;;;;;6317938;22;20217;-96
2021/03/07 04:59:53;;;;;;;17.17;9.95;;;;;;;;;;6319764;22;20248;-96
2021/03/07 05:02:19;;;;;;;16.90;9.80;;;;;;;;;;6317015;22;20187;-96
2021/03/07 05:04:45;;;;;;;18.13;10.95;;;;;;;;;;6318328;22;20177;-96
2021/03/07 05:07:11;;;;;;;16.63;9.50;;;;;;;;;;6317411;22;20233;-96
2021/03/07 05:09:37;;;;;;;17.02;10.63;;;;;;;;;;6318517;22;20169;-96
2021/03/07 05:12:06;;;;;;;15.25;9.68;;;;;;;;;;6317563;22;20200;-96
2021/03/07 05:14:32;;;;;;;14.80;10.25;;;;;;;;;;6319411;22;20184;-96
2021/03/07 05:17:01;;;;;;;16.40;8.95;;;;;;;;;;6318593;22;20201;-96
2021/03/07 05:19:27;;;;;;;16.70;11.25;;;;;;;;;;6318711;22;20202;-96
2021/03/07 05:21:53;;;;;;;15.77;9.90;;;;;;;;;;6317523;22;20180;-96
2021/03/07 05:24:19;;;;;;;15.85;9.93;;;;;;;;;;6318202;22;20200;-96
2021/03/07 05:26:46;;;;;;;15.65;10.32;;;;;;;;;;6318567;22;20177;-96
2021/03/07 05:29:12;;;;;;;18.38;11.05;;;;;;;;;;6320857;22;20225;-96
2021/03/07 05:31:38;;;;;;;14.38;10.07;;;;;;;;;;6325809;22;20186;-96
2021/03/07 05:34:05;;;;;;;16.63;9.20;;;;;;;;;;6316979;22;20225;-96
2021/03/07 05:36:31;;;;;;;14.90;10.05;;;;;;;;;;6313314;22;20174;-96
2021/03/07 05:38:57;;;;;;;17.70;10.50;;;;;;;;;;6317646;22;20180;-96
2021/03/07 05:41:24;;;;;;;19.73;11.35;;;;;;;;;;6325235;22;20225;-96
2021/03/07 05:43:50;;;;;;;19.35;12.13;;;;;;;;;;6319409;22;20204;-96
2021/03/07 05:46:16;;;;;;;19.45;13.05;;;;;;;;;;6326681;22;20161;-96
2021/03/07 05:48:44;;;;;;;21.15;13.32;;;;;;;;;;6331850;22;20200;-96
2021/03/07 05:51:13;;;;;;;25.33;14.88;;;;;;;;;;6353308;22;20177;-96
2021/03/07 05:53:41;;;;;;;36.17;19.75;;;;;;;;;;6326848;22;20196;-96
2021/03/07 05:58:54;;;;;;;35.05;21.75;;;;;;;;;;6330299;22;20174;-96
2021/03/07 06:01:24;;;;;;;37.05;20.60;;;;;;;;;;6308058;22;20170;-96
2021/03/07 06:06:44;;;;;;;32.92;21.40;;;;;;;;;;6332711;22;20173;-96
2021/03/07 06:09:27;;;;;;;32.35;21.13;;;;;;;;;;6332851;22;20228;-96
2021/03/07 06:12:09;;;;;;;37.28;21.88;;;;;;;;;;6333627;22;20335;-96
2021/03/07 06:14:44;;;;;;;33.35;20.20;;;;;;;;;;6324275;22;20177;-96
2021/03/07 06:17:12;;;;;;;32.28;18.95;;;;;;;;;;6354776;22;20173;-96
2021/03/07 06:19:55;;;;;;;35.10;19.70;;;;;;;;;;6325499;22;20202;-96
2021/03/07 06:22:22;;;;;;;32.90;20.13;;;;;;;;;;6322794;22;20237;-96
2021/03/07 06:24:49;;;;;;;35.40;20.48;;;;;;;;;;6319644;22;20185;-96
2021/03/07 06:27:17;;;;;;;32.85;19.40;;;;;;;;;;6319292;22;20183;-96
2021/03/07 06:29:54;;;;;;;27.98;18.48;;;;;;;;;;6320814;22;20169;-96
2021/03/07 06:32:29;;;;;;;29.27;16.80;;;;;;;;;;6314609;22;20201;-96
2021/03/07 06:34:55;;;;;;;23.30;14.63;;;;;;;;;;6323009;22;20173;-96
2021/03/07 06:37:22;;;;;;;24.63;15.70;;;;;;;;;;6321952;22;20173;-96
2021/03/07 06:39:48;;;;;;;23.15;14.55;;;;;;;;;;6314072;22;20185;-94
2021/03/07 06:42:15;;;;;;;26.08;15.88;;;;;;;;;;6317040;22;20207;-94
2021/03/07 06:44:51;;;;;;;26.50;16.77;;;;;;;;;;6317432;22;20177;-95
2021/03/07 06:47:17;;;;;;;25.13;14.75;;;;;;;;;;6317954;22;20177;-93
2021/03/07 06:49:44;;;;;;;24.35;16.58;;;;;;;;;;6318162;22;20181;-94
2021/03/07 06:52:11;;;;;;;21.13;14.25;;;;;;;;;;6317164;22;20204;-94
2021/03/07 06:54:39;;;;;;;20.85;13.48;;;;;;;;;;6318345;22;20185;-93
2021/03/07 06:57:06;;;;;;;20.38;14.55;;;;;;;;;;6314545;22;20691;-93
2021/03/07 06:59:32;;;;;;;21.70;14.85;;;;;;;;;;6315717;22;20211;-93
2021/03/07 07:01:58;;;;;;;23.03;14.83;;;;;;;;;;6315386;22;20181;-94
2021/03/07 07:04:25;;;;;;;21.80;14.50;;;;;;;;;;6317443;22;20412;-93
2021/03/07 07:07:00;;;;;;;23.20;15.50;;;;;;;;;;6316863;22;20177;-93
2021/03/07 07:09:27;;;;;;;20.67;14.65;;;;;;;;;;6318329;22;20177;-93
2021/03/07 07:11:54;;;;;;;19.92;13.75;;;;;;;;;;6316788;22;20177;-94
2021/03/07 07:14:28;;;;;;;22.83;14.73;;;;;;;;;;6317535;22;20232;-92
2021/03/07 07:16:55;;;;;;;18.13;12.15;;;;;;;;;;6316108;22;20187;-93
2021/03/07 07:19:21;;;;;;;23.23;13.02;;;;;;;;;;6317458;22;20173;-92
2021/03/07 07:21:47;;;;;;;18.58;12.55;;;;;;;;;;6315854;22;20186;-93
2021/03/07 07:24:13;;;;;;;19.58;12.85;;;;;;;;;;6318641;22;20177;-92
2021/03/07 07:26:39;;;;;;;19.25;12.05;;;;;;;;;;6314062;22;20179;-93
2021/03/07 07:29:07;;;;;;;19.38;13.05;;;;;;;;;;6314479;22;20178;-92
2021/03/07 07:31:35;;;;;;;14.98;11.27;;;;;;;;;;6314309;22;20199;-92
2021/03/07 07:34:02;;;;;;;21.98;12.80;;;;;;;;;;6312899;22;20205;-93
2021/03/07 07:36:30;;;;;;;17.25;12.20;;;;;;;;;;6315399;22;20169;-92
2021/03/07 07:38:58;;;;;;;15.85;12.32;;;;;;;;;;6314552;22;20178;-91
2021/03/07 07:41:41;;;;;;;15.07;11.35;;;;;;;;;;6315806;22;20643;-91
2021/03/07 07:44:10;;;;;;;14.77;10.65;;;;;;;;;;6312043;22;20205;-92
2021/03/07 07:46:52;;;;;;;14.70;10.60;;;;;;;;;;6317083;22;20204;-91
2021/03/07 07:49:32;;;;;;;19.33;11.70;;;;;;;;;;6315716;22;20179;-91
2021/03/07 07:51:58;;;;;;;18.15;12.48;;;;;;;;;;6317334;22;20196;-92
2021/03/07 07:54:39;;;;;;;17.10;12.13;;;;;;;;;;6315765;22;20755;-91
2021/03/07 07:57:34;;;;;;;16.48;11.63;;;;;;;;;;6314379;22;20411;-91
2021/03/07 08:00:01;;;;;;;22.50;14.80;;;;;;;;;;6312179;22;20186;-91
2021/03/07 08:02:42;;;;;;;20.90;15.07;;;;;;;;;;6315201;22;20193;-91
2021/03/07 08:05:24;;;;;;;21.40;13.93;;;;;;;;;;6312732;22;20182;-91
2021/03/07 08:07:58;;;;;;;15.82;10.18;;;;;;;;;;6312135;22;20549;-92
2021/03/07 08:10:46;;;;;;;12.93;8.40;;;;;;;;;;6312305;22;20183;-92
2021/03/07 08:13:13;;;;;;;13.10;8.95;;;;;;;;;;6314764;22;20208;-92
2021/03/07 08:15:47;;;;;;;15.02;11.13;;;;;;;;;;6314799;22;20199;-91
2021/03/07 08:18:15;;;;;;;16.40;11.10;;;;;;;;;;6315019;22;20511;-91
2021/03/07 08:21:00;;;;;;;15.53;11.30;;;;;;;;;;6314287;22;20408;-92
2021/03/07 08:23:26;;;;;;;20.40;12.82;;;;;;;;;;6312992;22;20402;-93
2021/03/07 08:25:59;;;;;;;27.23;11.98;;;;;;;;;;6312222;22;20661;-92
2021/03/07 08:28:38;;;;;;;18.70;12.30;;;;;;;;;;6314622;22;20643;-92
2021/03/07 08:31:06;;;;;;;18.57;12.70;;;;;;;;;;6313040;22;20493;-92
2021/03/07 08:33:32;;;;;;;18.00;13.53;;;;;;;;;;6311301;22;20451;-91
2021/03/07 08:36:12;;;;;;;15.30;10.67;;;;;;;;;;6314385;22;20412;-91
2021/03/07 08:38:38;;;;;;;15.03;11.57;;;;;;;;;;6315711;22;20416;-92
2021/03/07 08:41:04;;;;;;;14.32;11.15;;;;;;;;;;6315008;22;20416;-91
2021/03/07 08:43:51;;;;;;;20.10;11.50;;;;;;;;;;6316422;22;20177;-91
2021/03/07 08:46:20;;;;;;;16.50;11.53;;;;;;;;;;6314475;22;20415;-92
2021/03/07 08:48:47;;;;;;;17.47;10.73;;;;;;;;;;6313321;22;20783;-92
2021/03/07 08:51:13;;;;;;;12.40;10.20;;;;;;;;;;6312722;22;20411;-92
2021/03/07 08:53:40;;;;;;;15.70;10.80;;;;;;;;;;6317037;22;20454;-92
2021/03/07 08:56:07;;;;;;;17.23;12.23;;;;;;;;;;6316528;22;20457;-91
2021/03/07 08:58:33;;;;;;;17.53;12.07;;;;;;;;;;6316535;22;20441;-91
2021/03/07 09:00:59;;;;;;;15.90;11.40;;;;;;;;;;6311922;22;20427;-91
2021/03/07 09:03:27;;;;;;;14.97;10.57;;;;;;;;;;6317095;22;20412;-90
2021/03/07 09:05:53;;;;;;;12.93;9.93;;;;;;;;;;6315808;22;20948;-91
2021/03/07 09:08:20;;;;;;;14.20;10.07;;;;;;;;;;6317193;22;20407;-91
2021/03/07 09:10:48;;;;;;;19.20;11.70;;;;;;;;;;6315099;22;20412;-92
2021/03/07 09:13:18;;;;;;;16.70;12.20;;;;;;;;;;6314214;22;20454;-91
2021/03/07 09:15:50;;;;;;;16.07;12.30;;;;;;;;;;6313497;22;20408;-90
2021/03/07 09:18:17;;;;;;;16.87;11.70;;;;;;;;;;6317511;22;20419;-91
2021/03/07 09:20:45;;;;;;;17.37;11.67;;;;;;;;;;6318264;22;20717;-92
2021/03/07 09:23:26;;;;;;;13.80;11.20;;;;;;;;;;6315131;22;20407;-91
2021/03/07 09:25:52;;;;;;;15.90;10.80;;;;;;;;;;6313690;22;20415;-91
2021/03/07 09:28:27;;;;;;;11.53;9.23;;;;;;;;;;6315957;22;20412;-92
2021/03/07 09:30:54;;;;;;;14.43;10.30;;;;;;;;;;6318022;22;20427;-93
2021/03/07 09:33:20;;;;;;;12.17;10.93;;;;;;;;;;6315754;22;20452;-91
2021/03/07 09:35:47;;;;;;;15.90;11.07;;;;;;;;;;6318322;22;20403;-91
2021/03/07 09:38:14;;;;;;;17.30;11.60;;;;;;;;;;6315593;22;20412;-91
2021/03/07 09:40:41;;;;;;;15.37;10.77;;;;;;;;;;6316946;22;20403;-92
2021/03/07 09:43:08;;;;;;;12.40;10.50;;;;;;;;;;6314222;22;20890;-92
2021/03/07 09:45:35;;;;;;;11.33;10.13;;;;;;;;;;6319402;22;20418;-91
2021/03/07 09:48:02;;;;;;;12.53;10.40;;;;;;;;;;6315864;22;20406;-91
2021/03/07 09:50:28;;;;;;;15.60;10.57;;;;;;;;;;6316208;22;20415;-90
2021/03/07 09:52:55;;;;;;;11.57;9.87;;;;;;;;;;6312372;22;20458;-91
2021/03/07 09:55:24;;;;;;;13.47;9.53;;;;;;;;;;6315400;22;20414;-91
2021/03/07 09:58:11;;;;;;;13.27;9.90;;;;;;;;;;6315367;22;20434;-91
2021/03/07 10:00:40;;;;;;;14.20;10.00;;;;;;;;;;6310407;22;20485;-92
2021/03/07 10:03:17;;;;;;;12.97;9.97;;;;;;;;;;6313040;22;20961;-91
2021/03/07 10:05:43;;;;;;;18.50;10.53;;;;;;;;;;6313217;22;21003;-89
2021/03/07 10:08:22;;;;;;;16.17;10.60;;;;;;;;;;6313866;22;20409;-90
2021/03/07 10:10:48;;;;;;;11.93;10.20;;;;;;;;;;6309291;22;20404;-91
2021/03/07 10:13:16;;;;;;;14.67;9.20;;;;;;;;;;6308999;22;20461;-90
2021/03/07 10:15:42;;;;;;;12.20;9.27;;;;;;;;;;6317462;22;20413;-90
2021/03/07 10:18:16;;;;;;;13.43;9.43;;;;;;;;;;6315883;22;20415;-88
2021/03/07 10:20:43;;;;;;;16.00;10.03;;;;;;;;;;6319230;22;20409;-90
2021/03/07 10:23:10;;;;;;;14.00;10.00;;;;;;;;;;6317567;22;20413;-91
2021/03/07 10:25:37;;;;;;;11.33;9.83;;;;;;;;;;6315399;22;20406;-91
2021/03/07 10:28:04;;;;;;;15.73;10.43;;;;;;;;;;6318769;22;20413;-90
2021/03/07 10:30:32;;;;;;;23.00;17.17;;;;;;;;;;6316953;22;20434;-91
2021/03/07 10:33:16;;;;;;;14.57;12.03;;;;;;;;;;6317972;22;20447;-91
2021/03/07 10:36:03;;;;;;;28.03;19.67;;;;;;;;;;6317225;22;20402;-90
2021/03/07 10:38:29;;;;;;;13.43;9.70;;;;;;;;;;6316716;22;20401;-91
2021/03/07 10:40:56;;;;;;;19.70;15.37;;;;;;;;;;6313967;22;20421;-91
2021/03/07 10:43:22;;;;;;;12.20;9.43;;;;;;;;;;6317779;22;20430;-90
2021/03/07 10:45:48;;;;;;;10.80;9.10;;;;;;;;;;6318106;22;20427;-91
2021/03/07 10:48:15;;;;;;;12.30;9.17;;;;;;;;;;6312618;22;20435;-90
2021/03/07 10:50:42;;;;;;;11.17;8.73;;;;;;;;;;6314676;22;20462;-91
2021/03/07 10:53:08;;;;;;;11.97;8.77;;;;;;;;;;6319396;22;20457;-91
2021/03/07 10:55:34;;;;;;;9.80;8.00;;;;;;;;;;6318199;22;20406;-90
2021/03/07 10:58:01;;;;;;;11.30;8.20;;;;;;;;;;6318442;22;20408;-90
2021/03/07 11:00:28;;;;;;;9.33;7.80;;;;;;;;;;6317248;22;20438;-91
2021/03/07 11:02:54;;;;;;;8.20;7.40;;;;;;;;;;6318996;22;20423;-91
2021/03/07 11:05:20;;;;;;;10.27;7.23;;;;;;;;;;6317941;22;20400;-91
2021/03/07 11:07:47;;;;;;;8.53;7.33;;;;;;;;;;6319881;22;20413;-91
2021/03/07 11:10:14;;;;;;;9.43;7.70;;;;;;;;;;6318029;22;20737;-91
2021/03/07 11:12:40;;;;;;;9.50;8.00;;;;;;;;;;6318454;22;20435;-92
2021/03/07 11:15:08;;;;;;;9.57;7.70;;;;;;;;;;6318921;22;20420;-91
2021/03/07 11:17:34;;;;;;;9.30;7.33;;;;;;;;;;6317068;22;20407;-90
2021/03/07 11:20:00;;;;;;;9.77;7.03;;;;;;;;;;6319138;22;20471;-91
2021/03/07 11:22:27;;;;;;;8.50;7.17;;;;;;;;;;6316265;22;20410;-91
2021/03/07 11:24:53;;;;;;;8.20;6.60;;;;;;;;;;6317473;22;20400;-92
2021/03/07 11:27:21;;;;;;;9.90;5.97;;;;;;;;;;6317058;22;21144;-91
2021/03/07 11:29:47;;;;;;;9.50;7.10;;;;;;;;;;6319061;22;20754;-91
2021/03/07 11:32:14;;;;;;;10.03;6.67;;;;;;;;;;6316001;22;20428;-92
2021/03/07 11:34:40;;;;;;;8.60;6.97;;;;;;;;;;6314322;22;20399;-91
2021/03/07 11:37:06;;;;;;;7.20;6.50;;;;;;;;;;6315597;22;20404;-92
2021/03/07 11:39:32;;;;;;;8.20;6.87;;;;;;;;;;6317848;22;20480;-92
2021/03/07 11:41:58;;;;;;;8.57;6.60;;;;;;;;;;6311608;22;20410;-92
2021/03/07 11:44:25;;;;;;;10.00;6.43;;;;;;;;;;6313688;22;20416;-94
2021/03/07 11:46:52;;;;;;;7.80;5.90;;;;;;;;;;6312385;22;20420;-90
2021/03/07 11:49:19;;;;;;;8.50;7.30;;;;;;;;;;6315917;22;20412;-92
2021/03/07 11:51:45;;;;;;;7.50;6.70;;;;;;;;;;6313430;22;20407;-93
2021/03/07 11:54:11;;;;;;;8.33;6.93;;;;;;;;;;6314616;22;20473;-95
2021/03/07 11:56:37;;;;;;;8.20;6.90;;;;;;;;;;6315141;22;20408;-93
2021/03/07 11:59:03;;;;;;;8.40;7.23;;;;;;;;;;6312379;22;20947;-91
2021/03/07 12:01:29;;;;;;;10.27;7.10;;;;;;;;;;6315147;22;20494;-91
2021/03/07 12:03:55;;;;;;;6.83;6.13;;;;;;;;;;6315113;22;20414;-92
2021/03/07 12:06:22;;;;;;;9.80;7.10;;;;;;;;;;6320405;22;20400;-91
2021/03/07 12:08:48;;;;;;;9.00;7.27;;;;;;;;;;6316726;22;20403;-91
2021/03/07 12:11:14;;;;;;;7.90;7.00;;;;;;;;;;6316866;22;20416;-93
2021/03/07 12:13:40;;;;;;;8.37;6.90;;;;;;;;;;6315607;22;20523;-92
2021/03/07 12:16:07;;;;;;;8.33;7.23;;;;;;;;;;6316598;22;20408;-93
2021/03/07 12:18:35;;;;;;;13.40;6.90;;;;;;;;;;6311767;22;20410;-90
2021/03/07 12:21:01;;;;;;;7.43;6.67;;;;;;;;;;6313197;22;20436;-92
2021/03/07 12:23:28;;;;;;;9.40;6.90;;;;;;;;;;6312750;22;20408;-93
2021/03/07 12:25:54;;;;;;;8.80;7.00;;;;;;;;;;6314719;22;20404;-93
2021/03/07 12:28:20;;;;;;;9.93;6.70;;;;;;;;;;6313258;22;20426;-92
2021/03/07 12:30:46;;;;;;;7.30;6.53;;;;;;;;;;6313021;22;20432;-93
2021/03/07 12:33:12;;;;;;;6.97;6.20;;;;;;;;;;6316462;22;20456;-92
2021/03/07 12:35:38;;;;;;;8.40;6.73;;;;;;;;;;6316182;22;20412;-92
2021/03/07 12:38:04;;;;;;;8.00;6.70;;;;;;;;;;6313935;22;20408;-93
2021/03/07 12:40:33;;;;;;;7.90;6.30;;;;;;;;;;6312777;22;20415;-92
2021/03/07 12:42:59;;;;;;;7.90;6.57;;;;;;;;;;6314705;22;20403;-91
2021/03/07 12:45:25;;;;;;;9.93;6.60;;;;;;;;;;6310037;22;20427;-92
2021/03/07 12:47:51;;;;;;;8.50;6.80;;;;;;;;;;6316893;22;20412;-91
2021/03/07 12:50:17;;;;;;;8.67;6.73;;;;;;;;;;6315793;22;20408;-92
2021/03/07 12:52:43;;;;;;;7.30;6.07;;;;;;;;;;6316603;22;20473;-92
2021/03/07 12:55:09;;;;;;;7.63;6.93;;;;;;;;;;6314351;22;20400;-92
2021/03/07 12:57:36;;;;;;;8.27;6.87;;;;;;;;;;6318438;22;20416;-92
2021/03/07 13:00:03;;;;;;;7.53;6.20;;;;;;;;;;6316005;22;20412;-92
2021/03/07 13:02:29;;;;;;;7.47;6.60;;;;;;;;;;6316512;22;20416;-91
2021/03/07 13:04:55;;;;;;;15.17;6.80;;;;;;;;;;6313753;22;20433;-92
2021/03/07 13:07:21;;;;;;;7.83;5.90;;;;;;;;;;6309969;22;20404;-92
2021/03/07 13:09:47;;;;;;;9.93;6.20;;;;;;;;;;6316159;22;20400;-92
2021/03/07 13:12:14;;;;;;;6.80;6.10;;;;;;;;;;6317252;22;20407;-91
2021/03/07 13:14:41;;;;;;;7.07;6.33;;;;;;;;;;6315598;22;20539;-92
2021/03/07 13:17:07;;;;;;;8.27;5.90;;;;;;;;;;6314554;22;20407;-92
2021/03/07 13:19:33;;;;;;;8.20;6.00;;;;;;;;;;6317052;22;20404;-90
2021/03/07 13:21:59;;;;;;;6.63;6.03;;;;;;;;;;6314995;22;20472;-93
2021/03/07 13:24:25;;;;;;;6.83;6.13;;;;;;;;;;6316539;22;20454;-92
2021/03/07 13:26:51;;;;;;;6.40;5.80;;;;;;;;;;6314525;22;20415;-92
2021/03/07 13:29:17;;;;;;;6.37;5.57;;;;;;;;;;6314702;22;20412;-91
2021/03/07 13:31:44;;;;;;;6.87;5.77;;;;;;;;;;6314879;22;20436;-94
2021/03/07 13:34:10;;;;;;;6.63;5.33;;;;;;;;;;6317506;22;20451;-92
2021/03/07 13:36:36;;;;;;;6.67;5.73;;;;;;;;;;6314479;22;20408;-90
2021/03/07 13:39:02;;;;;;;8.40;5.70;;;;;;;;;;6317241;22;20434;-93
2021/03/07 13:41:28;;;;;;;7.60;6.37;;;;;;;;;;6313328;22;20434;-92
2021/03/07 13:43:54;;;;;;;8.23;5.83;;;;;;;;;;6317216;22;20438;-92
2021/03/07 13:46:20;;;;;;;7.47;6.40;;;;;;;;;;6312300;22;20404;-91
2021/03/07 13:48:47;;;;;;;7.93;5.93;;;;;;;;;;6315406;22;20404;-92
2021/03/07 13:51:13;;;;;;;8.73;5.60;;;;;;;;;;6315161;22;20886;-92
2021/03/07 13:53:39;;;;;;;6.90;6.20;;;;;;;;;;6311792;22;20451;-91
2021/03/07 13:56:05;;;;;;;7.37;6.67;;;;;;;;;;6314540;22;20404;-92
2021/03/07 13:58:32;;;;;;;7.00;5.53;;;;;;;;;;6313651;22;20412;-92
2021/03/07 14:00:58;;;;;;;6.60;5.90;;;;;;;;;;6314215;22;20408;-93
2021/03/07 14:03:24;;;;;;;7.47;5.97;;;;;;;;;;6311969;22;20416;-92
2021/03/07 14:05:51;;;;;;;10.53;7.83;;;;;;;;;;6317315;22;20400;-92
2021/03/07 14:08:17;;;;;;;8.47;6.10;;;;;;;;;;6314748;22;20415;-92
2021/03/07 14:10:43;;;;;;;12.60;6.37;;;;;;;;;;6316426;22;20400;-92
2021/03/07 14:13:09;;;;;;;9.50;5.97;;;;;;;;;;6316095;22;20474;-91
2021/03/07 14:15:35;;;;;;;7.17;6.10;;;;;;;;;;6319541;22;20901;-90
2021/03/07 14:18:01;;;;;;;8.53;6.30;;;;;;;;;;6315066;22;20404;-92
2021/03/07 14:20:27;;;;;;;6.93;5.63;;;;;;;;;;6316570;22;20405;-90
2021/03/07 14:22:54;;;;;;;7.37;6.40;;;;;;;;;;6315522;22;20420;-93
2021/03/07 14:25:20;;;;;;;8.57;6.20;;;;;;;;;;6317064;22;20407;-91
2021/03/07 14:27:47;;;;;;;6.93;5.67;;;;;;;;;;6314847;22;20939;-91
2021/03/07 14:30:15;;;;;;;6.53;5.90;;;;;;;;;;6317641;22;20416;-90
2021/03/07 14:32:41;;;;;;;6.30;5.67;;;;;;;;;;6318868;22;20434;-90
2021/03/07 14:35:08;;;;;;;8.20;5.87;;;;;;;;;;6313598;22;21211;-90
2021/03/07 14:37:34;;;;;;;10.10;6.30;;;;;;;;;;6314084;22;20412;-90